Time;durP1;ratioP1;P1;durP2;ratioP2;P2;SDS_P1;SDS_P2;PMS_P1;PMS_P2;Temp;Humidity;BMP_temperature;BMP_pressure;BME280_temperature;BME280_humidity;BME280_pressure;Samples;Min_cycle;Max_cycle;Signal;HPM_P1;HPM_P2
2022/11/10 00:01:36;;;;;;;12.43;2.58;;;10.30;99.90;;;;;;7338308;32;20133;-58
2022/11/10 00:05:38;;;;;;;9.88;2.03;;;10.30;99.90;;;;;;7331131;32;20226;-58
2022/11/10 00:09:40;;;;;;;13.48;1.92;;;10.20;99.90;;;;;;7334612;32;20096;-58
2022/11/10 00:18:02;;;;;;;9.05;1.70;;;10.20;99.90;;;;;;7333300;32;20186;-58
2022/11/10 00:22:04;;;;;;;7.72;2.65;;;10.10;99.90;;;;;;7338145;32;20222;-58
2022/11/10 00:26:14;;;;;;;11.73;2.15;;;10.00;99.90;;;;;;7334966;32;20103;-59
2022/11/10 00:30:16;;;;;;;9.10;1.75;;;9.90;99.90;;;;;;7330735;32;20130;-58
2022/11/10 00:34:18;;;;;;;9.13;2.87;;;9.90;99.90;;;;;;7337158;32;20512;-58
2022/11/10 00:38:20;;;;;;;7.75;1.77;;;10.00;99.90;;;;;;7333343;32;20212;-59
2022/11/10 00:42:21;;;;;;;10.68;2.40;;;9.90;99.90;;;;;;7332114;32;20325;-58
2022/11/10 00:46:23;;;;;;;8.50;2.30;;;9.90;99.90;;;;;;7340389;32;20137;-59
2022/11/10 00:50:25;;;;;;;10.00;2.35;;;9.80;99.90;;;;;;7340063;32;20106;-58
2022/11/10 00:54:26;;;;;;;9.38;1.73;;;9.90;99.90;;;;;;7333147;32;20174;-58
2022/11/10 00:58:28;;;;;;;9.90;1.65;;;9.90;99.90;;;;;;7336023;32;20133;-58
2022/11/10 01:02:30;;;;;;;9.80;1.85;;;9.80;99.90;;;;;;7331925;32;20484;-58
2022/11/10 01:06:31;;;;;;;8.45;1.17;;;9.70;99.90;;;;;;7335470;32;20881;-58
2022/11/10 01:10:34;;;;;;;9.77;1.70;;;9.80;99.90;;;;;;7334802;32;20211;-59
2022/11/10 01:14:35;;;;;;;8.80;2.00;;;9.80;99.90;;;;;;7335009;32;20501;-59
2022/11/10 01:18:37;;;;;;;12.85;1.75;;;9.80;99.90;;;;;;7340318;32;20226;-58
2022/11/10 01:22:39;;;;;;;8.73;1.50;;;9.80;99.90;;;;;;7337518;32;20137;-58
2022/11/10 01:26:41;;;;;;;14.18;1.90;;;9.70;99.90;;;;;;7342194;32;20253;-59
2022/11/10 01:30:42;;;;;;;11.20;1.80;;;9.70;99.90;;;;;;7340075;32;20199;-59
2022/11/10 01:34:44;;;;;;;13.80;2.25;;;9.60;99.90;;;;;;7343402;32;20237;-58
2022/11/10 01:38:46;;;;;;;8.57;1.67;;;9.70;99.90;;;;;;7343234;32;20868;-58
2022/11/10 01:42:53;;;;;;;12.45;1.92;;;9.80;99.90;;;;;;7335359;32;20165;-58
2022/11/10 01:46:55;;;;;;;15.52;1.60;;;9.70;99.90;;;;;;7333702;32;20096;-58
2022/11/10 01:51:08;;;;;;;10.68;2.00;;;9.60;99.90;;;;;;7330728;32;20100;-59
2022/11/10 01:55:10;;;;;;;11.73;1.90;;;9.70;99.90;;;;;;7339325;32;20127;-58
2022/11/10 01:59:16;;;;;;;16.83;2.00;;;9.70;99.90;;;;;;7335779;32;20491;-58
2022/11/10 02:03:22;;;;;;;14.75;1.80;;;9.70;99.90;;;;;;7333786;32;20115;-58
2022/11/10 02:07:25;;;;;;;14.90;1.92;;;9.70;99.90;;;;;;7341399;32;20139;-58
2022/11/10 02:11:28;;;;;;;9.73;1.80;;;9.80;99.90;;;;;;7338422;32;20492;-60
2022/11/10 02:15:30;;;;;;;14.38;2.20;;;9.80;99.90;;;;;;7338273;32;20088;-58
2022/11/10 02:19:39;;;;;;;8.20;1.65;;;9.90;99.90;;;;;;7334427;32;20278;-58
2022/11/10 02:23:44;;;;;;;14.15;1.95;;;9.80;99.90;;;;;;7332582;32;21304;-59
2022/11/10 02:27:45;;;;;;;15.95;2.25;;;9.80;99.90;;;;;;7333067;32;20219;-58
2022/11/10 02:31:47;;;;;;;10.57;1.90;;;9.90;99.90;;;;;;7339629;32;20099;-59
2022/11/10 02:35:49;;;;;;;12.20;1.60;;;9.80;99.90;;;;;;7337375;32;22055;-59
2022/11/10 02:39:51;;;;;;;12.75;2.00;;;9.80;99.90;;;;;;7343502;32;20449;-59
2022/11/10 02:43:55;;;;;;;12.68;1.90;;;9.70;99.90;;;;;;7337100;32;20229;-59
2022/11/10 02:47:56;;;;;;;15.93;1.65;;;9.80;99.90;;;;;;7339607;32;20103;-58
2022/11/10 02:51:58;;;;;;;13.02;1.67;;;9.70;99.90;;;;;;7343707;32;20111;-58
2022/11/10 02:56:00;;;;;;;11.55;1.90;;;9.70;99.90;;;;;;7337909;32;20186;-58
2022/11/10 03:00:02;;;;;;;8.95;1.90;;;9.60;99.90;;;;;;7342002;32;20095;-59
2022/11/10 03:04:04;;;;;;;8.27;1.80;;;9.50;99.90;;;;;;7333551;32;20103;-58
2022/11/10 03:08:06;;;;;;;14.15;1.60;;;9.70;99.90;;;;;;7339569;32;20567;-58
2022/11/10 03:12:08;;;;;;;9.43;1.67;;;9.60;99.90;;;;;;7339589;32;20103;-58
2022/11/10 03:16:09;;;;;;;8.85;2.00;;;9.60;99.90;;;;;;7339780;32;20124;-58
2022/11/10 03:20:11;;;;;;;13.40;2.00;;;9.80;99.90;;;;;;7339047;32;20130;-60
2022/11/10 03:24:13;;;;;;;11.02;1.48;;;9.70;99.90;;;;;;7335350;32;20190;-59
2022/11/10 03:28:15;;;;;;;13.93;1.90;;;9.60;99.90;;;;;;7337946;32;20222;-59
2022/11/10 03:32:16;;;;;;;9.98;1.80;;;9.60;99.90;;;;;;7343594;32;20118;-58
2022/11/10 03:36:18;;;;;;;14.98;1.87;;;9.70;99.90;;;;;;7342266;32;20848;-58
2022/11/10 03:40:20;;;;;;;12.13;1.77;;;9.60;99.90;;;;;;7340150;32;20230;-59
2022/11/10 03:44:22;;;;;;;12.70;2.08;;;9.70;99.90;;;;;;7339753;32;20100;-58
2022/11/10 03:48:23;;;;;;;11.75;1.80;;;9.70;99.90;;;;;;7334752;32;20527;-58
2022/11/10 03:52:25;;;;;;;13.88;2.25;;;9.70;99.90;;;;;;7338574;32;20174;-59
2022/11/10 03:56:26;;;;;;;14.75;1.75;;;9.70;99.90;;;;;;7343078;32;20099;-58
2022/11/10 04:00:28;;;;;;;16.40;2.72;;;9.70;99.90;;;;;;7336256;32;20851;-58
2022/11/10 04:09:00;;;;;;;14.10;2.15;;;9.70;99.90;;;;;;7336030;32;20206;-59
2022/11/10 04:17:22;;;;;;;15.80;2.35;;;9.60;99.90;;;;;;7326771;32;20599;-59
2022/11/10 04:21:24;;;;;;;12.88;2.17;;;9.70;99.90;;;;;;7338520;32;20096;-58
2022/11/10 04:25:25;;;;;;;11.70;1.90;;;9.60;99.90;;;;;;7333799;32;20174;-58
2022/11/10 04:29:27;;;;;;;12.75;2.12;;;9.60;99.90;;;;;;7332658;32;20098;-61
2022/11/10 04:33:29;;;;;;;13.35;2.00;;;9.60;99.90;;;;;;7331562;32;20251;-59
2022/11/10 04:37:30;;;;;;;12.10;1.85;;;9.50;99.90;;;;;;7341393;32;20693;-59
2022/11/10 04:41:32;;;;;;;12.07;1.75;;;9.40;99.90;;;;;;7335269;32;20222;-58
2022/11/10 04:45:34;;;;;;;10.43;1.62;;;9.50;99.90;;;;;;7334203;32;20252;-59
2022/11/10 04:49:35;;;;;;;13.25;2.03;;;9.30;99.90;;;;;;7338912;32;20119;-58
2022/11/10 04:53:37;;;;;;;12.57;2.37;;;9.20;99.90;;;;;;7336850;32;20569;-59
2022/11/10 04:57:39;;;;;;;11.68;2.05;;;9.20;99.90;;;;;;7328937;32;20555;-59
2022/11/10 05:01:41;;;;;;;13.05;2.08;;;9.20;99.90;;;;;;7330683;32;20259;-59
2022/11/10 05:05:42;;;;;;;11.10;1.98;;;9.30;99.90;;;;;;7334588;32;20826;-58
2022/11/10 05:09:44;;;;;;;11.63;1.87;;;9.40;99.90;;;;;;7333715;32;20503;-59
2022/11/10 05:13:46;;;;;;;17.27;2.45;;;9.40;99.90;;;;;;7332546;32;20107;-58
2022/11/10 05:17:52;;;;;;;12.70;1.70;;;9.40;99.90;;;;;;7338470;32;20125;-57
2022/11/10 05:21:54;;;;;;;14.70;2.40;;;9.60;99.90;;;;;;7337565;32;20660;-58
2022/11/10 05:25:56;;;;;;;16.83;2.15;;;9.60;99.90;;;;;;7331801;32;20120;-58
2022/11/10 05:29:57;;;;;;;15.48;2.45;;;9.60;99.90;;;;;;7334420;32;20096;-58
2022/11/10 05:33:59;;;;;;;14.65;2.30;;;9.70;99.90;;;;;;7334681;32;20157;-60
2022/11/10 05:38:01;;;;;;;12.65;2.12;;;9.70;99.90;;;;;;7336069;32;20099;-60
2022/11/10 05:42:03;;;;;;;17.35;2.37;;;9.70;99.90;;;;;;7340244;32;20218;-58
2022/11/10 05:46:05;;;;;;;13.88;1.90;;;9.60;99.90;;;;;;7339413;32;20162;-58
2022/11/10 05:50:08;;;;;;;14.75;2.47;;;9.60;99.90;;;;;;7334257;32;20760;-59
2022/11/10 05:54:09;;;;;;;11.48;1.98;;;9.50;99.90;;;;;;7339643;32;20213;-59
2022/11/10 05:58:11;;;;;;;17.35;2.45;;;9.60;99.90;;;;;;7344925;32;21508;-59
2022/11/10 06:02:13;;;;;;;16.75;2.60;;;9.60;99.90;;;;;;7332307;32;20193;-61
2022/11/10 06:06:14;;;;;;;14.93;2.30;;;9.40;99.90;;;;;;7331240;32;20107;-58
2022/11/10 06:10:16;;;;;;;20.37;2.40;;;9.40;99.90;;;;;;7331190;32;20107;-58
2022/11/10 06:14:18;;;;;;;20.20;4.82;;;9.30;99.90;;;;;;7339660;32;20332;-58
2022/11/10 06:18:20;;;;;;;9.25;1.83;;;9.30;99.90;;;;;;7337286;32;20126;-59
2022/11/10 06:22:21;;;;;;;14.40;2.30;;;9.20;99.90;;;;;;7341606;32;20197;-59
2022/11/10 06:26:23;;;;;;;14.70;1.92;;;9.10;99.90;;;;;;7344337;32;20200;-59
2022/11/10 06:30:26;;;;;;;13.38;2.05;;;8.90;99.90;;;;;;7348050;32;20104;-58
2022/11/10 06:34:27;;;;;;;11.68;1.98;;;9.00;99.90;;;;;;7354338;32;20108;-59
2022/11/10 06:38:29;;;;;;;12.75;2.33;;;9.00;99.90;;;;;;7352914;32;20168;-60
2022/11/10 06:42:31;;;;;;;24.50;3.60;;;9.00;99.90;;;;;;7339070;32;20098;-62
2022/11/10 06:46:33;;;;;;;14.85;1.90;;;9.10;99.90;;;;;;7354144;32;20641;-59
2022/11/10 06:50:41;;;;;;;11.32;2.12;;;9.00;99.90;;;;;;7343849;32;20220;-61
2022/11/10 06:54:43;;;;;;;14.60;2.90;;;8.90;99.90;;;;;;7350997;32;20956;-60
2022/11/10 06:58:45;;;;;;;13.00;3.10;;;9.00;99.90;;;;;;7349031;32;20099;-60
2022/11/10 07:02:46;;;;;;;17.77;2.35;;;9.00;99.90;;;;;;7357226;32;20206;-60
2022/11/10 07:06:48;;;;;;;11.57;1.83;;;8.90;99.90;;;;;;7351537;32;20210;-60
2022/11/10 07:10:52;;;;;;;12.90;1.77;;;9.00;99.90;;;;;;7345243;32;20118;-60
2022/11/10 07:14:54;;;;;;;15.68;2.40;;;8.90;99.90;;;;;;7340969;32;20110;-61
2022/11/10 07:18:56;;;;;;;19.20;2.50;;;9.00;99.90;;;;;;7351090;32;20122;-61
2022/11/10 07:23:02;;;;;;;10.82;2.10;;;9.00;99.90;;;;;;7348519;32;20115;-61
2022/11/10 07:27:04;;;;;;;16.00;2.37;;;9.00;99.90;;;;;;7353604;32;20241;-61
2022/11/10 07:31:05;;;;;;;20.45;2.20;;;9.00;99.90;;;;;;7354331;32;20103;-60
2022/11/10 07:35:07;;;;;;;11.73;1.98;;;9.20;99.90;;;;;;7355669;32;20103;-63
2022/11/10 07:39:10;;;;;;;15.90;2.37;;;9.10;99.90;;;;;;7354405;32;20099;-60
2022/11/10 07:43:12;;;;;;;16.98;2.72;;;9.10;99.90;;;;;;7343966;32;20696;-60
2022/11/10 07:47:13;;;;;;;14.18;2.40;;;9.30;99.90;;;;;;7351522;32;20186;-60
2022/11/10 07:51:15;;;;;;;18.58;2.65;;;9.30;99.90;;;;;;7352189;32;20125;-62
2022/11/10 07:55:17;;;;;;;15.95;2.50;;;9.30;99.90;;;;;;7341614;32;20436;-60
2022/11/10 07:59:18;;;;;;;13.98;2.58;;;9.30;99.90;;;;;;7349168;32;20103;-60
2022/11/10 08:03:20;;;;;;;13.40;2.62;;;9.30;99.90;;;;;;7353020;32;20120;-62
2022/11/10 08:07:23;;;;;;;16.37;2.40;;;9.30;99.90;;;;;;7342051;32;20203;-63
2022/11/10 08:11:25;;;;;;;12.32;3.17;;;9.40;99.90;;;;;;7353867;32;20103;-60
2022/11/10 08:15:28;;;;;;;15.98;2.50;;;9.60;99.90;;;;;;7340317;32;20099;-61
2022/11/10 08:19:29;;;;;;;18.17;3.22;;;9.70;99.90;;;;;;7346185;32;20103;-62
2022/11/10 08:23:31;;;;;;;8.38;2.45;;;9.70;99.90;;;;;;7342529;32;20099;-62
2022/11/10 08:27:33;;;;;;;14.60;3.22;;;9.80;99.90;;;;;;7347326;32;20250;-60
2022/11/10 08:31:37;;;;;;;17.00;3.15;;;9.90;99.90;;;;;;7340119;32;20104;-61
2022/11/10 08:35:42;;;;;;;10.35;2.83;;;10.00;99.90;;;;;;7356137;32;20103;-60
2022/11/10 08:39:43;;;;;;;10.82;2.83;;;10.00;99.90;;;;;;7353262;32;20197;-60
2022/11/10 08:43:45;;;;;;;13.57;2.97;;;10.00;99.90;;;;;;7359345;32;20130;-60
2022/11/10 08:47:47;;;;;;;18.27;4.72;;;10.00;99.90;;;;;;7353262;32;20107;-63
2022/11/10 08:51:48;;;;;;;15.05;3.25;;;10.10;99.90;;;;;;7355016;32;20103;-61
2022/11/10 08:55:51;;;;;;;15.05;3.95;;;10.10;99.90;;;;;;7342487;32;20104;-61
2022/11/10 08:59:53;;;;;;;14.48;3.08;;;10.20;99.90;;;;;;7355793;32;20190;-61
2022/11/10 09:03:55;;;;;;;14.23;3.28;;;10.20;99.90;;;;;;7354793;32;20766;-62
2022/11/10 09:07:57;;;;;;;13.62;2.75;;;10.40;99.90;;;;;;7341495;32;20257;-63
2022/11/10 09:11:58;;;;;;;16.67;3.40;;;10.50;99.90;;;;;;7346590;32;20118;-62
2022/11/10 09:16:02;;;;;;;12.55;2.92;;;10.50;99.90;;;;;;7345032;32;20126;-64
2022/11/10 09:20:06;;;;;;;21.05;3.05;;;10.60;99.90;;;;;;7347067;32;20095;-65
2022/11/10 09:24:07;;;;;;;12.50;2.85;;;10.80;99.90;;;;;;7341677;32;20116;-61
2022/11/10 09:28:13;;;;;;;16.23;2.65;;;10.90;99.90;;;;;;7346462;32;20731;-63
2022/11/10 09:32:14;;;;;;;12.65;2.60;;;11.10;99.90;;;;;;7347245;32;20126;-63
2022/11/10 09:36:16;;;;;;;14.95;2.72;;;11.20;99.90;;;;;;7346541;32;20095;-63
2022/11/10 09:40:39;;;;;;;14.70;3.37;;;11.20;99.90;;;;;;7352043;32;20533;-65
2022/11/10 09:44:53;;;;;;;11.90;2.47;;;11.30;99.90;;;;;;7344030;32;20092;-65
2022/11/10 09:49:02;;;;;;;11.85;2.28;;;11.70;99.90;;;;;;7346835;32;20127;-62
2022/11/10 09:53:11;;;;;;;12.15;2.37;;;12.00;99.90;;;;;;7341512;32;20293;-63
2022/11/10 09:57:16;;;;;;;15.60;2.45;;;12.50;99.90;;;;;;7349436;32;20566;-61
2022/11/10 10:01:59;;;;;;;14.35;2.30;;;12.70;99.90;;;;;;7348641;32;20099;-61
2022/11/10 10:06:12;;;;;;;13.85;2.28;;;12.60;99.90;;;;;;7338243;32;20119;-63
2022/11/10 10:10:21;;;;;;;14.07;1.98;;;12.70;99.90;;;;;;7348097;32;20194;-61
2022/11/10 10:14:43;;;;;;;14.40;2.50;;;12.60;99.90;;;;;;7343163;32;20769;-61
2022/11/10 10:18:53;;;;;;;17.55;2.35;;;12.80;99.90;;;;;;7341485;32;20127;-60
2022/11/10 10:23:16;;;;;;;17.95;2.67;;;12.80;99.90;;;;;;7342339;32;20873;-61
2022/11/10 10:27:24;;;;;;;11.12;2.08;;;12.80;99.90;;;;;;7337944;32;20210;-60
2022/11/10 10:31:32;;;;;;;19.58;2.47;;;12.70;99.90;;;;;;7321064;32;20166;-61
2022/11/10 10:35:34;;;;;;;15.25;2.45;;;12.80;99.90;;;;;;7329307;32;20191;-60
2022/11/10 10:39:47;;;;;;;8.23;1.77;;;12.90;99.90;;;;;;7331551;32;20117;-61
2022/11/10 10:43:51;;;;;;;18.77;2.67;;;13.10;99.90;;;;;;7336377;32;20146;-60
2022/11/10 10:47:55;;;;;;;17.35;2.45;;;13.20;99.90;;;;;;7347187;32;20694;-60
2022/11/10 10:52:04;;;;;;;13.23;1.75;;;13.30;99.90;;;;;;7339958;32;20233;-60
2022/11/10 10:56:16;;;;;;;10.68;2.00;;;13.30;99.90;;;;;;7341422;32;20293;-60
2022/11/10 11:00:22;;;;;;;14.20;1.77;;;13.30;99.90;;;;;;7346813;32;20195;-61
2022/11/10 11:04:34;;;;;;;13.43;1.97;;;13.40;99.90;;;;;;7340196;32;20210;-60
2022/11/10 11:08:35;;;;;;;16.00;2.17;;;13.50;99.90;;;;;;7341927;32;20696;-60
2022/11/10 11:12:37;;;;;;;15.68;2.30;;;13.70;99.90;;;;;;7343635;32;20129;-60
2022/11/10 11:16:52;;;;;;;14.87;1.50;;;13.70;99.90;;;;;;7348542;32;20106;-60
2022/11/10 11:21:27;;;;;;;14.05;2.15;;;13.80;99.90;;;;;;7344371;32;20584;-60
2022/11/10 11:25:35;;;;;;;13.55;2.15;;;13.80;99.90;;;;;;7336062;32;20103;-60
2022/11/10 11:30:09;;;;;;;11.32;1.90;;;14.00;99.90;;;;;;7341090;32;20299;-60
2022/11/10 11:34:50;;;;;;;14.02;1.87;;;14.00;99.90;;;;;;7335174;32;20208;-60
2022/11/10 11:39:10;;;;;;;8.85;1.17;;;14.10;99.90;;;;;;7326341;32;20256;-60
2022/11/10 11:43:31;;;;;;;13.30;1.77;;;14.10;99.90;;;;;;7331902;32;20208;-61
2022/11/10 11:47:54;;;;;;;10.85;1.55;;;14.20;99.90;;;;;;7345153;32;20626;-61
2022/11/10 11:52:15;;;;;;;10.73;1.60;;;14.10;99.90;;;;;;7346242;32;20185;-61
2022/11/10 11:56:24;;;;;;;11.55;1.75;;;14.30;99.90;;;;;;7350767;32;20182;-61
2022/11/10 12:00:33;;;;;;;12.63;1.52;;;14.30;99.90;;;;;;7346384;32;20174;-59
2022/11/10 12:04:47;;;;;;;8.55;1.27;;;14.30;99.90;;;;;;7348017;32;20130;-59
2022/11/10 12:08:52;;;;;;;9.52;1.45;;;14.30;99.90;;;;;;7350126;32;20099;-59
2022/11/10 12:13:24;;;;;;;10.85;1.75;;;14.30;99.90;;;;;;7347377;32;20095;-59
2022/11/10 12:17:37;;;;;;;9.93;1.30;;;14.40;99.90;;;;;;7344500;32;20108;-60
2022/11/10 12:21:47;;;;;;;9.82;1.10;;;14.40;99.90;;;;;;7351547;32;20099;-60
2022/11/10 12:26:08;;;;;;;8.18;1.15;;;14.60;99.90;;;;;;7350861;32;20110;-61
2022/11/10 12:30:12;;;;;;;9.68;1.45;;;14.50;99.90;;;;;;7350177;32;20100;-61
2022/11/10 12:34:29;;;;;;;6.50;1.10;;;14.50;99.90;;;;;;7354928;32;20191;-59
2022/11/10 12:38:52;;;;;;;8.35;1.00;;;14.60;99.90;;;;;;7345387;32;20198;-61
2022/11/10 12:43:05;;;;;;;5.00;0.98;;;14.60;99.90;;;;;;7352797;32;20126;-60
2022/11/10 12:47:14;;;;;;;7.20;1.30;;;14.70;99.90;;;;;;7343728;32;20118;-60
2022/11/10 12:51:44;;;;;;;5.18;0.88;;;14.70;99.90;;;;;;7346585;32;20095;-60
2022/11/10 12:55:55;;;;;;;11.23;1.00;;;14.80;99.90;;;;;;7347311;32;20491;-60
2022/11/10 13:00:07;;;;;;;6.82;0.98;;;14.70;99.90;;;;;;7348697;32;20466;-61
2022/11/10 13:04:13;;;;;;;9.52;1.15;;;14.80;99.90;;;;;;7335617;32;20198;-62
2022/11/10 13:08:25;;;;;;;8.30;1.30;;;14.70;99.90;;;;;;7334099;32;20645;-61
2022/11/10 13:12:27;;;;;;;11.00;1.23;;;14.70;99.90;;;;;;7336704;32;20288;-61
2022/11/10 13:16:39;;;;;;;5.78;0.98;;;14.80;99.90;;;;;;7344592;32;20722;-61
2022/11/10 13:20:44;;;;;;;8.20;1.00;;;14.90;99.90;;;;;;7336604;32;20804;-62
2022/11/10 13:24:45;;;;;;;5.28;1.00;;;15.10;99.90;;;;;;7337375;32;20108;-63
2022/11/10 13:28:47;;;;;;;7.80;1.48;;;15.30;99.90;;;;;;7329330;32;20184;-61
2022/11/10 13:32:49;;;;;;;9.95;1.02;;;15.60;99.90;;;;;;7332129;32;20238;-63
2022/11/10 13:36:51;;;;;;;8.20;1.00;;;15.80;99.90;;;;;;7338958;32;21006;-62
2022/11/10 13:40:53;;;;;;;6.30;1.00;;;15.90;99.90;;;;;;7333448;32;20126;-62
2022/11/10 13:45:33;;;;;;;6.70;0.90;;;16.00;99.90;;;;;;7322507;32;20167;-60
2022/11/10 13:50:18;;;;;;;7.22;1.15;;;16.10;99.90;;;;;;7321767;32;20252;-61
2022/11/10 13:54:58;;;;;;;8.23;1.33;;;16.10;99.90;;;;;;7324561;32;20596;-62
2022/11/10 13:59:00;;;;;;;6.40;1.10;;;16.20;99.90;;;;;;7316907;32;20088;-61
2022/11/10 14:03:03;;;;;;;7.90;1.30;;;16.10;99.90;;;;;;7320377;32;20230;-60
2022/11/10 14:07:17;;;;;;;8.63;1.55;;;16.10;99.90;;;;;;7325854;32;20277;-61
2022/11/10 14:11:24;;;;;;;5.35;1.40;;;15.90;99.90;;;;;;7324721;32;20107;-63
2022/11/10 14:15:39;;;;;;;10.52;1.50;;;15.50;99.90;;;;;;7324003;32;20186;-57
2022/11/10 14:19:43;;;;;;;5.93;0.90;;;15.30;99.90;;;;;;7335760;32;20130;-57
2022/11/10 14:24:11;;;;;;;5.37;0.90;;;15.30;99.90;;;;;;7322234;32;20224;-60
2022/11/10 14:28:28;;;;;;;8.43;1.37;;;15.00;99.90;;;;;;7324955;32;20512;-60
2022/11/10 14:32:30;;;;;;;6.03;1.10;;;15.00;99.90;;;;;;7325657;32;20613;-60
2022/11/10 14:36:31;;;;;;;7.20;1.20;;;14.90;99.90;;;;;;7326034;32;20228;-60
2022/11/10 14:40:33;;;;;;;9.43;1.05;;;14.90;99.90;;;;;;7334118;32;20221;-60
2022/11/10 14:44:35;;;;;;;9.85;1.50;;;14.60;99.90;;;;;;7338808;32;20213;-60
2022/11/10 14:48:37;;;;;;;7.03;1.10;;;14.40;99.90;;;;;;7331814;32;20178;-60
2022/11/10 14:52:40;;;;;;;8.93;1.65;;;14.30;99.90;;;;;;7331915;32;20182;-62
2022/11/10 14:56:42;;;;;;;6.45;0.95;;;14.20;99.90;;;;;;7336259;32;20187;-62
2022/11/10 15:00:44;;;;;;;5.05;0.70;;;14.10;99.90;;;;;;7323388;32;20222;-61
2022/11/10 15:04:49;;;;;;;3.33;0.77;;;14.00;99.90;;;;;;7334835;32;20242;-62
2022/11/10 15:08:51;;;;;;;5.05;1.17;;;13.90;99.90;;;;;;7325748;32;20269;-59
2022/11/10 15:13:18;;;;;;;4.50;0.73;;;13.80;99.90;;;;;;7323342;32;20126;-60
2022/11/10 15:17:20;;;;;;;5.72;1.42;;;13.70;99.90;;;;;;7328042;32;20205;-60
2022/11/10 15:21:29;;;;;;;7.75;1.00;;;13.70;99.90;;;;;;7337720;32;21762;-59
2022/11/10 15:25:34;;;;;;;8.15;1.20;;;13.60;99.90;;;;;;7340120;32;20204;-61
2022/11/10 15:29:36;;;;;;;10.57;1.73;;;13.60;99.90;;;;;;7328904;32;20295;-59
2022/11/10 15:33:45;;;;;;;6.60;1.00;;;13.50;99.90;;;;;;7338806;32;20942;-60
2022/11/10 15:38:02;;;;;;;3.97;1.20;;;13.30;99.90;;;;;;7336762;32;20220;-59
2022/11/10 15:42:13;;;;;;;6.10;1.35;;;13.30;99.90;;;;;;7329739;32;20182;-60
2022/11/10 15:46:22;;;;;;;6.85;1.15;;;13.10;99.90;;;;;;7341972;32;20099;-60
2022/11/10 15:50:24;;;;;;;6.95;1.08;;;13.10;99.90;;;;;;7336897;32;20087;-60
2022/11/10 15:54:29;;;;;;;7.37;1.92;;;12.90;99.90;;;;;;7332760;32;20178;-59
2022/11/10 15:58:31;;;;;;;5.75;1.00;;;12.80;99.90;;;;;;7336879;32;20524;-60
2022/11/10 16:02:32;;;;;;;4.62;0.80;;;12.60;99.90;;;;;;7308374;32;20277;-62
2022/11/10 16:06:34;;;;;;;8.48;1.27;;;12.60;99.90;;;;;;7336599;32;20238;-62
2022/11/10 16:10:36;;;;;;;5.18;1.05;;;12.50;99.90;;;;;;7338177;32;20269;-63
2022/11/10 16:14:38;;;;;;;7.10;1.15;;;12.30;99.90;;;;;;7335107;32;20471;-62
2022/11/10 16:18:40;;;;;;;6.53;1.08;;;12.30;99.90;;;;;;7329024;32;20634;-63
2022/11/10 16:22:44;;;;;;;9.43;1.58;;;12.30;99.90;;;;;;7334777;32;20099;-61
2022/11/10 16:26:46;;;;;;;7.18;1.37;;;12.20;99.90;;;;;;7340039;32;20242;-62
2022/11/10 16:30:49;;;;;;;6.40;1.30;;;12.10;99.90;;;;;;7351292;32;20102;-61
2022/11/10 16:34:51;;;;;;;5.03;1.37;;;12.00;99.90;;;;;;7346612;32;20122;-60
2022/11/10 16:38:53;;;;;;;6.95;1.55;;;12.00;99.90;;;;;;7356384;32;20126;-61
2022/11/10 16:42:55;;;;;;;8.15;1.15;;;12.10;99.90;;;;;;7339267;32;20107;-61
2022/11/10 16:46:57;;;;;;;8.25;2.20;;;12.10;99.90;;;;;;7333308;32;20258;-62
2022/11/10 16:51:00;;;;;;;5.37;1.73;;;12.10;99.90;;;;;;7342391;32;20092;-60
2022/11/10 16:55:02;;;;;;;6.72;1.65;;;12.20;99.90;;;;;;7327805;32;20205;-60
2022/11/10 16:59:03;;;;;;;6.30;1.62;;;12.10;99.90;;;;;;7336965;32;20186;-59
2022/11/10 17:03:14;;;;;;;5.55;1.42;;;11.90;99.90;;;;;;7331598;32;20114;-60
2022/11/10 17:07:22;;;;;;;7.07;1.73;;;11.80;99.90;;;;;;7351346;32;20119;-59
2022/11/10 17:11:23;;;;;;;10.32;1.60;;;11.60;99.90;;;;;;7341991;32;20099;-59
2022/11/10 17:15:25;;;;;;;6.10;1.87;;;11.50;99.90;;;;;;7346471;32;20217;-61
2022/11/10 17:19:27;;;;;;;11.30;2.03;;;11.50;99.90;;;;;;7350395;32;20182;-59
2022/11/10 17:23:29;;;;;;;6.05;1.40;;;11.40;99.90;;;;;;7343225;32;20104;-59
2022/11/10 17:27:30;;;;;;;6.87;1.60;;;11.50;99.90;;;;;;7338939;32;20215;-61
2022/11/10 17:31:38;;;;;;;5.20;1.10;;;11.50;99.90;;;;;;7346035;32;20314;-59
2022/11/10 17:35:49;;;;;;;12.30;2.50;;;11.50;99.90;;;;;;7341490;32;20339;-60
2022/11/10 17:39:51;;;;;;;7.00;1.70;;;11.40;99.90;;;;;;7340551;32;20107;-60
2022/11/10 17:43:52;;;;;;;7.85;1.90;;;11.40;99.90;;;;;;7341157;32;20182;-58
2022/11/10 17:47:54;;;;;;;7.60;1.40;;;11.30;99.90;;;;;;7350839;32;20107;-60
2022/11/10 17:51:56;;;;;;;10.07;1.83;;;11.20;99.90;;;;;;7340648;32;20204;-62
2022/11/10 17:55:58;;;;;;;6.60;1.67;;;11.20;99.90;;;;;;7334848;32;20187;-59
2022/11/10 17:59:59;;;;;;;7.53;1.77;;;11.20;99.90;;;;;;7338602;32;20201;-62
2022/11/10 18:04:01;;;;;;;7.07;1.70;;;11.50;99.90;;;;;;7337878;32;20181;-60
2022/11/10 18:08:03;;;;;;;5.95;1.40;;;11.50;99.90;;;;;;7337429;32;20217;-59
2022/11/10 18:12:05;;;;;;;10.00;1.70;;;11.40;99.90;;;;;;7336040;32;20126;-61
2022/11/10 18:16:08;;;;;;;4.90;1.40;;;11.50;99.90;;;;;;7354503;32;20095;-63
2022/11/10 18:20:12;;;;;;;5.32;1.85;;;11.40;99.90;;;;;;7353372;32;20132;-64
2022/11/10 18:24:14;;;;;;;7.45;1.60;;;11.50;99.90;;;;;;7353391;32;20125;-61
2022/11/10 18:28:16;;;;;;;10.20;2.00;;;11.50;99.90;;;;;;7344866;32;20863;-61
2022/11/10 18:32:18;;;;;;;7.78;1.70;;;11.40;99.90;;;;;;7337291;32;20278;-62
2022/11/10 18:36:20;;;;;;;6.87;1.65;;;11.50;99.90;;;;;;7345299;32;20140;-61
2022/11/10 18:40:21;;;;;;;8.27;1.60;;;11.30;99.90;;;;;;7338211;32;20829;-60
2022/11/10 18:44:23;;;;;;;5.15;2.12;;;11.20;99.90;;;;;;7343552;32;20182;-62
2022/11/10 18:48:25;;;;;;;5.00;1.67;;;11.20;99.90;;;;;;7340504;32;20201;-61
2022/11/10 18:52:33;;;;;;;12.20;2.30;;;11.10;99.90;;;;;;7348942;32;20651;-59
2022/11/10 18:56:35;;;;;;;7.55;2.17;;;11.00;99.90;;;;;;7357539;32;20117;-58
2022/11/10 19:00:37;;;;;;;6.62;1.55;;;11.00;99.90;;;;;;7355807;32;20142;-57
2022/11/10 19:04:39;;;;;;;8.52;2.05;;;10.90;99.90;;;;;;7351036;32;20161;-57
2022/11/10 19:08:41;;;;;;;4.65;1.90;;;10.70;99.90;;;;;;7352920;32;20121;-58
2022/11/10 19:12:43;;;;;;;12.18;2.12;;;10.70;99.90;;;;;;7351428;32;21056;-57
2022/11/10 19:16:45;;;;;;;8.00;2.10;;;10.50;99.90;;;;;;7355952;32;20210;-58
2022/11/10 19:20:46;;;;;;;8.45;2.50;;;10.50;99.90;;;;;;7349955;32;20191;-58
2022/11/10 19:24:48;;;;;;;7.85;2.12;;;10.40;99.90;;;;;;7350574;32;20191;-60
2022/11/10 19:29:09;;;;;;;6.28;1.95;;;10.40;99.90;;;;;;7346583;32;20562;-59
2022/11/10 19:33:10;;;;;;;7.60;2.12;;;10.50;99.90;;;;;;7348931;32;20162;-60
2022/11/10 19:37:12;;;;;;;10.68;1.92;;;10.40;99.90;;;;;;7349138;32;20126;-59
2022/11/10 19:41:20;;;;;;;7.82;2.28;;;10.40;99.90;;;;;;7353460;32;20166;-59
2022/11/10 19:45:21;;;;;;;10.27;2.58;;;10.30;99.90;;;;;;7348452;32;20202;-60
2022/11/10 19:49:23;;;;;;;4.95;1.87;;;10.40;99.90;;;;;;7337913;32;20238;-60
2022/11/10 19:53:25;;;;;;;12.15;2.58;;;10.30;99.90;;;;;;7345370;32;20187;-61
2022/11/10 19:57:27;;;;;;;6.78;2.20;;;10.20;99.90;;;;;;7338947;32;20216;-61
2022/11/10 20:01:30;;;;;;;6.65;2.22;;;10.10;99.90;;;;;;7336056;32;20204;-60
2022/11/10 20:05:32;;;;;;;7.30;2.20;;;10.10;99.90;;;;;;7340795;32;20639;-61
2022/11/10 20:09:34;;;;;;;6.07;2.47;;;10.00;99.90;;;;;;7342885;32;20754;-61
2022/11/10 20:13:36;;;;;;;6.75;1.90;;;10.00;99.90;;;;;;7343377;32;20149;-60
2022/11/10 20:17:37;;;;;;;5.47;1.95;;;9.90;99.90;;;;;;7339923;32;20122;-62
2022/11/10 20:21:39;;;;;;;5.57;2.50;;;9.90;99.90;;;;;;7341513;32;20688;-62
2022/11/10 20:25:41;;;;;;;7.65;2.12;;;9.80;99.90;;;;;;7346225;32;20738;-62
2022/11/10 20:29:43;;;;;;;7.32;2.80;;;9.80;99.90;;;;;;7338737;32;20789;-61
2022/11/10 20:33:46;;;;;;;7.45;2.45;;;9.80;99.90;;;;;;7338816;32;20099;-62
2022/11/10 20:37:48;;;;;;;9.77;2.65;;;9.80;99.90;;;;;;7344617;32;20241;-60
2022/11/10 20:41:51;;;;;;;8.50;3.00;;;9.80;99.90;;;;;;7345060;32;20927;-61
2022/11/10 20:45:53;;;;;;;7.57;2.87;;;9.90;99.90;;;;;;7338619;32;20194;-62
2022/11/10 20:49:54;;;;;;;6.15;2.67;;;9.90;99.90;;;;;;7338636;32;20197;-61
2022/11/10 20:53:59;;;;;;;8.68;3.20;;;9.70;99.90;;;;;;7339506;32;20238;-60
2022/11/10 20:58:00;;;;;;;11.65;3.70;;;9.70;99.90;;;;;;7350575;32;20115;-60
2022/11/10 21:02:02;;;;;;;8.70;3.08;;;9.60;99.90;;;;;;7338931;32;20112;-61
2022/11/10 21:06:04;;;;;;;9.00;3.95;;;9.60;99.90;;;;;;7339184;32;20623;-61
2022/11/10 21:10:06;;;;;;;10.30;3.78;;;9.50;99.90;;;;;;7335493;32;20633;-61
2022/11/10 21:14:08;;;;;;;10.85;4.28;;;9.50;99.90;;;;;;7345036;32;20126;-61
2022/11/10 21:18:09;;;;;;;9.35;4.10;;;9.40;99.90;;;;;;7341036;32;20134;-61
2022/11/10 21:22:11;;;;;;;11.75;4.30;;;9.30;99.90;;;;;;7352677;32;20122;-60
2022/11/10 21:26:13;;;;;;;10.38;5.03;;;9.40;99.90;;;;;;7343034;32;20103;-60